createdAt,value
2019-05-14T00:00:36.246Z,3.53
2019-05-14T00:03:03.524Z,3.20
2019-05-14T00:05:32.172Z,3.13
2019-05-14T00:08:02.075Z,3.37
2019-05-14T00:10:29.005Z,3.10
2019-05-14T00:12:56.390Z,3.07
2019-05-14T00:15:23.849Z,3.90
2019-05-14T00:17:52.224Z,3.50
2019-05-14T00:20:22.414Z,3.97
2019-05-14T00:22:52.013Z,3.80
2019-05-14T00:25:18.889Z,4.30
2019-05-14T00:27:46.160Z,3.80
2019-05-14T00:30:14.416Z,4.03
2019-05-14T00:32:41.797Z,3.93
2019-05-14T00:35:11.148Z,3.87
2019-05-14T00:39:58.600Z,4.60
2019-05-14T00:42:26.035Z,4.40
2019-05-14T00:44:57.867Z,4.33
2019-05-14T00:47:23.651Z,4.30
2019-05-14T00:49:51.793Z,4.00
2019-05-14T00:52:22.281Z,4.03
2019-05-14T00:54:51.976Z,4.03
2019-05-14T00:57:21.012Z,4.37
2019-05-14T00:59:48.307Z,4.27
2019-05-14T01:02:15.770Z,4.53
2019-05-14T01:04:43.148Z,5.37
2019-05-14T01:07:11.938Z,5.37
2019-05-14T01:09:41.842Z,4.40
2019-05-14T01:12:08.937Z,4.93
2019-05-14T01:14:36.405Z,5.17
2019-05-14T01:17:03.835Z,5.67
2019-05-14T01:19:31.673Z,5.90
2019-05-14T01:22:01.525Z,5.97
2019-05-14T01:24:28.381Z,6.70
2019-05-14T01:26:55.650Z,6.87
2019-05-14T01:29:23.917Z,6.40
2019-05-14T01:31:52.070Z,6.57
2019-05-14T01:34:21.556Z,7.20
2019-05-14T01:36:48.780Z,6.70
2019-05-14T01:39:16.058Z,6.53
2019-05-14T01:41:43.313Z,6.60
2019-05-14T01:44:11.971Z,6.70
2019-05-14T01:46:39.344Z,7.43
2019-05-14T01:49:06.597Z,6.93
2019-05-14T01:51:33.926Z,7.70
2019-05-14T01:54:01.601Z,6.73
2019-05-14T01:56:28.935Z,7.43
2019-05-14T01:58:56.177Z,7.87
2019-05-14T02:01:23.442Z,8.17
2019-05-14T02:03:51.848Z,8.30
2019-05-14T02:06:21.293Z,7.30
2019-05-14T02:08:48.474Z,7.53
2019-05-14T02:11:15.755Z,7.47
2019-05-14T02:13:42.996Z,7.97
2019-05-14T02:16:13.089Z,6.47
2019-05-14T02:18:41.468Z,6.53
2019-05-14T02:21:08.748Z,7.47
2019-05-14T02:23:36.029Z,7.87
2019-05-14T02:26:03.273Z,8.03
2019-05-14T02:28:31.497Z,8.03
2019-05-14T02:31:03.144Z,9.03
2019-05-14T02:33:30.681Z,8.43
2019-05-14T02:35:59.972Z,8.20
2019-05-14T02:38:29.632Z,9.10
2019-05-14T02:40:55.435Z,8.37
2019-05-14T02:43:22.690Z,7.20
2019-05-14T02:46:02.068Z,7.07
2019-05-14T02:48:20.118Z,7.30
2019-05-14T02:50:49.399Z,6.60
2019-05-14T02:53:19.897Z,7.33
2019-05-14T02:55:46.031Z,8.30
2019-05-14T02:58:13.330Z,7.70
2019-05-14T03:00:40.978Z,7.30
2019-05-14T03:03:09.836Z,7.10
2019-05-14T03:05:40.153Z,8.80
2019-05-14T03:08:09.006Z,7.20
2019-05-14T03:10:36.000Z,8.73
2019-05-14T03:13:03.531Z,8.87
2019-05-14T03:15:30.980Z,8.57
2019-05-14T03:17:59.875Z,9.40
2019-05-14T03:20:28.830Z,8.10
2019-05-14T03:23:05.261Z,8.40
2019-05-14T03:25:25.697Z,9.13
2019-05-14T03:27:52.985Z,8.70
2019-05-14T03:30:22.837Z,9.57
2019-05-14T03:32:52.836Z,10.17
2019-05-14T03:35:24.517Z,8.47
2019-05-14T03:37:49.567Z,7.50
2019-05-14T03:40:19.432Z,8.13
2019-05-14T03:42:49.073Z,9.57
2019-05-14T03:45:15.935Z,9.93
2019-05-14T03:47:43.197Z,9.80
2019-05-14T03:50:10.506Z,10.37
2019-05-14T03:52:39.942Z,9.87
2019-05-14T03:55:09.480Z,11.07
2019-05-14T03:57:39.573Z,11.40
2019-05-14T04:00:09.917Z,12.67
2019-05-14T04:02:38.954Z,12.97
2019-05-14T04:05:05.176Z,11.97
2019-05-14T04:07:33.778Z,12.53
2019-05-14T04:10:01.959Z,13.57
2019-05-14T04:12:31.059Z,11.50
2019-05-14T04:14:59.926Z,12.70
2019-05-14T04:17:37.071Z,11.03
2019-05-14T04:19:59.971Z,13.60
2019-05-14T04:22:30.014Z,13.60
2019-05-14T04:24:59.664Z,13.63
2019-05-14T04:27:29.839Z,12.80
2019-05-14T04:30:00.396Z,12.23
2019-05-14T04:32:29.521Z,13.00
2019-05-14T04:34:59.657Z,15.17
2019-05-14T04:37:28.964Z,14.03
2019-05-14T04:39:59.162Z,12.00
2019-05-14T04:42:25.511Z,12.80
2019-05-14T04:44:52.850Z,14.23
2019-05-14T04:47:31.206Z,12.03
2019-05-14T04:49:50.496Z,14.37
2019-05-14T04:52:20.434Z,12.97
2019-05-14T04:54:49.942Z,14.53
2019-05-14T04:57:20.320Z,13.57
2019-05-14T04:59:49.385Z,13.73
2019-05-14T05:02:18.977Z,13.43
2019-05-14T05:04:50.573Z,13.70
2019-05-14T05:07:19.204Z,12.73
2019-05-14T05:09:49.873Z,12.57
2019-05-14T05:12:19.425Z,13.13
2019-05-14T05:14:45.396Z,11.50
2019-05-14T05:17:12.686Z,12.10
2019-05-14T05:19:45.047Z,11.43
2019-05-14T05:22:09.058Z,10.87
2019-05-14T05:24:38.082Z,10.70
2019-05-14T05:27:05.511Z,9.57
2019-05-14T05:29:32.739Z,8.70
2019-05-14T05:32:00.007Z,8.10
2019-05-14T05:34:28.281Z,8.67
2019-05-14T05:36:55.732Z,8.27
2019-05-14T05:39:23.156Z,7.47
2019-05-14T05:41:50.464Z,7.80
2019-05-14T05:44:18.780Z,7.97
2019-05-14T05:46:46.280Z,7.33
2019-05-14T05:49:13.633Z,7.77
2019-05-14T05:51:40.935Z,6.73
2019-05-14T05:54:09.232Z,7.03
2019-05-14T05:56:38.768Z,8.10
2019-05-14T05:59:05.996Z,6.97
2019-05-14T06:01:42.836Z,7.17
2019-05-14T06:04:02.724Z,6.93
2019-05-14T06:06:30.413Z,6.93
2019-05-14T06:08:58.486Z,6.60
2019-05-14T06:11:25.857Z,6.57
2019-05-14T06:13:53.168Z,6.07
2019-05-14T06:16:20.669Z,5.90
2019-05-14T06:18:48.637Z,6.33
2019-05-14T06:21:18.689Z,5.80
2019-05-14T06:23:45.423Z,6.17
2019-05-14T06:26:12.731Z,6.20
2019-05-14T06:28:41.092Z,5.47
2019-05-14T06:31:09.944Z,5.83
2019-05-14T06:33:39.337Z,6.27
2019-05-14T06:36:08.605Z,5.83
2019-05-14T06:38:38.788Z,5.90
2019-05-14T06:41:08.201Z,6.03
2019-05-14T06:43:35.219Z,6.17
2019-05-14T06:46:02.673Z,6.10
2019-05-14T06:48:34.584Z,6.03
2019-05-14T06:50:59.584Z,6.40
2019-05-14T06:53:28.993Z,6.60
2019-05-14T06:55:58.805Z,6.50
2019-05-14T06:58:25.896Z,6.43
2019-05-14T07:00:53.333Z,6.30
2019-05-14T07:03:20.599Z,7.03
2019-05-14T07:05:49.258Z,6.27
2019-05-14T07:08:18.835Z,6.50
2019-05-14T07:10:48.366Z,5.90
2019-05-14T07:13:15.162Z,6.33
2019-05-14T07:15:42.445Z,6.20
2019-05-14T07:18:09.723Z,6.07
2019-05-14T07:20:39.256Z,6.07
2019-05-14T07:23:08.220Z,5.63
2019-05-14T07:25:35.633Z,6.73
2019-05-14T07:28:02.881Z,5.90
2019-05-14T07:30:30.967Z,6.43
2019-05-14T07:32:58.805Z,6.23
2019-05-14T07:35:28.695Z,5.37
2019-05-14T07:37:55.646Z,5.77
2019-05-14T07:40:22.885Z,5.60
2019-05-14T07:42:50.185Z,5.37
2019-05-14T07:45:18.455Z,5.57
2019-05-14T07:47:46.018Z,5.27
2019-05-14T07:50:19.573Z,5.40
2019-05-14T07:52:49.799Z,5.50
2019-05-14T07:55:18.533Z,5.50
2019-05-14T07:57:48.082Z,5.23
2019-05-14T08:00:19.177Z,5.53
2019-05-14T08:02:48.921Z,5.83
2019-05-14T08:05:17.938Z,5.50
2019-05-14T08:07:44.969Z,5.57
2019-05-14T08:10:12.336Z,5.30
2019-05-14T08:12:39.664Z,5.33
2019-05-14T08:15:17.633Z,5.13
2019-05-14T08:17:38.768Z,5.60
2019-05-14T08:20:08.883Z,4.77
2019-05-14T08:22:38.349Z,5.07
2019-05-14T08:25:08.358Z,4.90
2019-05-14T08:27:38.936Z,4.63
2019-05-14T08:30:08.212Z,4.53
2019-05-14T08:32:35.692Z,4.73
2019-05-14T08:35:03.103Z,4.03
2019-05-14T08:37:30.370Z,3.73
2019-05-14T08:39:58.844Z,3.80
2019-05-14T08:42:26.283Z,3.90
2019-05-14T08:44:53.666Z,3.70
2019-05-14T08:47:21.121Z,3.87
2019-05-14T08:49:50.800Z,3.93
2019-05-14T08:52:19.234Z,4.00
2019-05-14T08:54:49.044Z,3.83
2019-05-14T08:57:18.686Z,4.00
2019-05-14T08:59:45.167Z,4.13
2019-05-14T09:02:12.432Z,3.50
2019-05-14T09:04:42.599Z,3.97
2019-05-14T09:07:09.645Z,3.30
2019-05-14T09:09:38.237Z,3.27
2019-05-14T09:12:12.120Z,3.13
2019-05-14T09:14:35.056Z,3.20
2019-05-14T09:17:02.477Z,2.87
2019-05-14T09:19:29.839Z,2.47
2019-05-14T09:21:58.937Z,2.23
2019-05-14T09:24:28.865Z,3.00
2019-05-14T09:26:55.510Z,2.53
2019-05-14T09:29:26.128Z,2.20
2019-05-14T09:31:52.029Z,2.57
2019-05-14T09:34:19.740Z,2.37
2019-05-14T09:36:48.891Z,2.60
2019-05-14T09:39:18.604Z,2.40
2019-05-14T09:41:45.502Z,2.53
2019-05-14T09:44:12.860Z,2.10
2019-05-14T09:46:40.205Z,2.27
2019-05-14T09:49:08.708Z,2.23
2019-05-14T09:51:38.158Z,2.47
2019-05-14T09:54:05.287Z,2.67
2019-05-14T09:56:32.543Z,2.43
2019-05-14T09:58:59.879Z,2.40
2019-05-14T10:01:27.260Z,2.60
2019-05-14T10:03:54.626Z,2.47
2019-05-14T10:06:21.984Z,2.57
2019-05-14T10:08:49.365Z,2.57
2019-05-14T10:11:16.623Z,2.80
2019-05-14T10:13:43.927Z,2.87
2019-05-14T10:16:11.181Z,2.70
2019-05-14T10:18:38.628Z,2.97
2019-05-14T10:21:08.381Z,2.70
2019-05-14T10:23:35.401Z,2.70
2019-05-14T10:26:03.768Z,2.67
2019-05-14T10:28:31.031Z,2.53
2019-05-14T10:30:59.947Z,2.60
2019-05-14T10:33:28.726Z,2.47
2019-05-14T10:35:58.793Z,2.60
2019-05-14T10:38:26.391Z,2.83
2019-05-14T10:40:53.699Z,2.30
2019-05-14T10:43:23.677Z,2.27
2019-05-14T10:45:51.264Z,2.30
2019-05-14T10:48:18.891Z,2.50
2019-05-14T10:50:59.051Z,2.30
2019-05-14T10:53:15.594Z,2.20
2019-05-14T10:55:43.155Z,2.07
2019-05-14T10:58:11.691Z,2.50
2019-05-14T11:00:42.200Z,2.10
2019-05-14T11:03:13.355Z,2.37
2019-05-14T11:05:45.132Z,2.40
2019-05-14T11:08:12.950Z,2.27
2019-05-14T11:10:42.155Z,2.50
2019-05-14T11:13:11.348Z,1.83
2019-05-14T11:15:39.626Z,2.10
2019-05-14T11:18:08.734Z,2.10
2019-05-14T11:20:41.710Z,2.43
2019-05-14T11:23:05.553Z,2.27
2019-05-14T11:25:32.855Z,2.20
2019-05-14T11:28:02.254Z,1.87
2019-05-14T11:30:29.704Z,2.20
2019-05-14T11:32:58.393Z,2.20
2019-05-14T11:35:28.603Z,2.10
2019-05-14T11:37:55.424Z,2.10
2019-05-14T11:40:24.275Z,2.30
2019-05-14T11:42:51.883Z,2.27
2019-05-14T11:45:19.217Z,1.83
2019-05-14T11:47:48.703Z,1.80
2019-05-14T11:50:15.869Z,2.00
2019-05-14T11:52:43.117Z,2.10
2019-05-14T11:55:10.610Z,2.20
2019-05-14T11:57:37.872Z,2.10
2019-05-14T12:00:08.389Z,1.87
2019-05-14T12:02:35.235Z,1.63
2019-05-14T12:05:02.696Z,2.00
2019-05-14T12:07:31.104Z,2.00
2019-05-14T12:09:58.441Z,1.90
2019-05-14T12:12:25.904Z,2.17
2019-05-14T12:14:53.332Z,2.07
2019-05-14T12:17:21.669Z,1.80
2019-05-14T12:19:49.127Z,1.83
2019-05-14T12:22:18.791Z,1.70
2019-05-14T12:24:45.741Z,1.73
2019-05-14T12:27:12.968Z,1.90
2019-05-14T12:29:40.399Z,1.80
2019-05-14T12:32:12.862Z,1.53
2019-05-14T12:34:38.690Z,1.80
2019-05-14T12:37:08.854Z,1.80
2019-05-14T12:39:35.770Z,2.10
2019-05-14T12:42:03.205Z,1.80
2019-05-14T12:44:30.490Z,2.00
2019-05-14T12:46:58.744Z,1.43
2019-05-14T12:49:26.184Z,1.90
2019-05-14T12:51:53.573Z,1.80
2019-05-14T12:54:20.904Z,1.70
2019-05-14T12:56:49.415Z,1.53
2019-05-14T12:59:16.855Z,1.50
2019-05-14T13:01:44.130Z,1.50
2019-05-14T13:04:11.379Z,1.80
2019-05-14T13:06:40.047Z,1.80
2019-05-14T13:09:09.378Z,1.43
2019-05-14T13:11:41.276Z,1.60
2019-05-14T13:14:06.409Z,1.60
2019-05-14T13:16:33.803Z,1.60
2019-05-14T13:19:01.180Z,1.50
2019-05-14T13:21:29.057Z,1.30
2019-05-14T13:23:56.510Z,1.60
2019-05-14T13:26:23.832Z,1.67
2019-05-14T13:28:51.311Z,1.50
2019-05-14T13:31:18.633Z,1.50
2019-05-14T13:33:48.581Z,1.60
2019-05-14T13:36:15.377Z,1.50
2019-05-14T13:38:42.640Z,1.70
2019-05-14T13:41:09.920Z,1.80
2019-05-14T13:43:39.111Z,1.50
2019-05-14T13:46:07.272Z,1.50
2019-05-14T13:48:39.595Z,1.50
2019-05-14T13:51:04.954Z,1.33
2019-05-14T13:53:32.343Z,1.20
2019-05-14T13:55:59.586Z,1.43
2019-05-14T13:58:28.642Z,1.60
2019-05-14T14:00:59.023Z,1.73
2019-05-14T14:03:26.265Z,1.47
2019-05-14T14:05:54.691Z,1.40
2019-05-14T14:08:22.089Z,1.37
2019-05-14T14:10:53.704Z,1.60
2019-05-14T14:13:19.867Z,1.50
2019-05-14T14:15:48.947Z,1.57
2019-05-14T14:18:20.667Z,1.30
2019-05-14T14:20:45.773Z,1.20
2019-05-14T14:23:22.055Z,1.30
2019-05-14T14:25:42.481Z,1.40
2019-05-14T14:28:10.208Z,1.50
2019-05-14T14:30:39.456Z,1.27
2019-05-14T14:33:06.701Z,1.37
2019-05-14T14:35:34.332Z,1.40
2019-05-14T14:38:01.621Z,1.30
2019-05-14T14:40:30.110Z,1.40
2019-05-14T14:42:59.371Z,1.30
2019-05-14T14:45:29.186Z,1.40
2019-05-14T14:47:56.129Z,1.30
2019-05-14T14:50:23.393Z,1.33
2019-05-14T14:52:50.758Z,1.33
2019-05-14T14:55:19.317Z,1.40
2019-05-14T14:57:53.598Z,1.53
2019-05-14T15:00:16.190Z,1.37
2019-05-14T15:02:43.469Z,1.50
2019-05-14T15:05:14.029Z,1.40
2019-05-14T15:07:40.964Z,1.37
2019-05-14T15:10:09.108Z,1.30
2019-05-14T15:12:39.896Z,1.50
2019-05-14T15:15:06.251Z,1.40
2019-05-14T15:17:33.506Z,1.30
2019-05-14T15:20:00.791Z,1.30
2019-05-14T15:22:30.901Z,1.20
2019-05-14T15:24:58.635Z,1.30
2019-05-14T15:27:28.227Z,1.50
2019-05-14T15:29:55.331Z,1.50
2019-05-14T15:32:22.732Z,1.43
2019-05-14T15:34:50.751Z,1.40
2019-05-14T15:37:19.218Z,1.43
2019-05-14T15:39:48.910Z,1.40
2019-05-14T15:42:15.938Z,1.40
2019-05-14T15:44:52.212Z,1.50
2019-05-14T15:47:12.853Z,1.50
2019-05-14T15:49:40.127Z,1.33
2019-05-14T15:52:08.405Z,1.50
2019-05-14T15:54:45.595Z,1.50
2019-05-14T15:57:05.002Z,1.37
2019-05-14T15:59:32.254Z,1.40
2019-05-14T16:01:59.581Z,1.30
2019-05-14T16:04:28.648Z,1.30
2019-05-14T16:06:58.469Z,1.50
2019-05-14T16:09:28.726Z,1.23
2019-05-14T16:11:54.881Z,1.30
2019-05-14T16:14:22.241Z,1.60
2019-05-14T16:16:49.551Z,1.40
2019-05-14T16:19:19.056Z,1.40
2019-05-14T16:21:45.999Z,1.50
2019-05-14T16:24:13.265Z,1.27
2019-05-14T16:26:40.806Z,1.30
2019-05-14T16:29:08.901Z,1.23
2019-05-14T16:31:42.584Z,1.30
2019-05-14T16:34:05.833Z,1.30
2019-05-14T16:36:33.239Z,1.20
2019-05-14T16:39:00.539Z,1.30
2019-05-14T16:41:29.019Z,1.20
2019-05-14T16:43:58.682Z,1.60
2019-05-14T16:46:25.685Z,1.40
2019-05-14T16:48:52.939Z,1.30
2019-05-14T16:51:20.186Z,1.30
2019-05-14T16:53:48.775Z,1.47
2019-05-14T16:56:19.119Z,1.50
2019-05-14T16:58:46.636Z,1.13
2019-05-14T17:01:13.906Z,1.20
2019-05-14T17:03:41.234Z,1.33
2019-05-14T17:06:08.525Z,1.30
2019-05-14T17:08:35.784Z,1.40
2019-05-14T17:11:03.139Z,1.30
2019-05-14T17:13:30.425Z,1.37
2019-05-14T17:15:58.947Z,4.00
2019-05-14T17:18:28.730Z,2.00
2019-05-14T17:20:55.680Z,1.50
2019-05-14T17:23:22.982Z,1.53
2019-05-14T17:25:50.332Z,1.50
2019-05-14T17:28:17.639Z,1.50
2019-05-14T17:30:44.875Z,1.33
2019-05-14T17:33:12.154Z,1.63
2019-05-14T17:35:39.567Z,1.60
2019-05-14T17:38:09.178Z,1.80
2019-05-14T17:40:36.087Z,1.60
2019-05-14T17:43:03.358Z,1.70
2019-05-14T17:45:30.725Z,1.50
2019-05-14T17:47:58.521Z,1.50
2019-05-14T17:50:26.608Z,1.60
2019-05-14T17:52:56.864Z,1.60
2019-05-14T17:55:24.477Z,1.50
2019-05-14T17:57:58.240Z,1.50
2019-05-14T18:00:21.166Z,2.10
2019-05-14T18:02:48.662Z,1.67
2019-05-14T18:05:18.795Z,1.80
2019-05-14T18:07:48.326Z,1.63
2019-05-14T18:10:15.621Z,1.70
2019-05-14T18:12:42.870Z,1.60
2019-05-14T18:15:10.189Z,1.70
2019-05-14T18:17:39.362Z,1.70
2019-05-14T18:20:08.431Z,1.60
2019-05-14T18:22:36.063Z,1.47
2019-05-14T18:25:03.880Z,1.50
2019-05-14T18:27:31.121Z,1.50
2019-05-14T18:29:59.301Z,1.57
2019-05-14T18:32:26.837Z,1.90
2019-05-14T18:34:54.118Z,1.77
2019-05-14T18:37:21.413Z,1.50
2019-05-14T18:39:48.667Z,1.57
2019-05-14T18:42:15.972Z,1.53
2019-05-14T18:44:43.262Z,1.60
2019-05-14T18:47:10.570Z,1.40
2019-05-14T18:49:37.788Z,1.73
2019-05-14T18:52:05.148Z,1.87
2019-05-14T18:54:32.432Z,1.50
2019-05-14T18:56:59.796Z,1.77
2019-05-14T18:59:30.767Z,1.77
2019-05-14T19:01:59.413Z,1.50
2019-05-14T19:04:28.275Z,1.80
2019-05-14T19:06:56.198Z,1.73
2019-05-14T19:09:23.912Z,1.50
2019-05-14T19:11:51.457Z,1.60
2019-05-14T19:14:19.060Z,1.90
2019-05-14T19:16:48.991Z,1.80
2019-05-14T19:19:20.664Z,1.80
2019-05-14T19:21:48.827Z,1.70
2019-05-14T19:24:16.141Z,1.80
2019-05-14T19:26:43.485Z,1.70
2019-05-14T19:29:10.843Z,1.87
2019-05-14T19:31:38.653Z,1.87
2019-05-14T19:34:08.330Z,1.73
2019-05-14T19:36:35.329Z,2.00
2019-05-14T19:39:03.610Z,2.17
2019-05-14T19:41:31.061Z,2.07
2019-05-14T19:43:59.610Z,2.10
2019-05-14T19:46:29.153Z,2.23
2019-05-14T19:48:58.941Z,2.30
2019-05-14T19:51:27.787Z,2.40
2019-05-14T19:53:54.907Z,2.30
2019-05-14T19:56:22.285Z,2.27
2019-05-14T19:58:51.099Z,2.30
2019-05-14T20:01:19.432Z,2.10
2019-05-14T20:03:46.938Z,2.30
2019-05-14T20:06:14.499Z,2.90
2019-05-14T20:08:41.871Z,2.07
2019-05-14T20:11:09.156Z,2.30
2019-05-14T20:13:38.899Z,2.50
2019-05-14T20:16:05.789Z,2.30
2019-05-14T20:18:33.142Z,3.17
2019-05-14T20:21:01.595Z,9.07
2019-05-14T20:23:29.222Z,5.53
2019-05-14T20:25:58.588Z,4.70
2019-05-14T20:28:25.883Z,3.37
2019-05-14T20:30:53.258Z,2.80
2019-05-14T20:33:20.848Z,3.20
2019-05-14T20:35:48.694Z,2.93
2019-05-14T20:38:18.379Z,2.90
2019-05-14T20:40:45.665Z,2.90
2019-05-14T20:43:12.955Z,2.53
2019-05-14T20:45:40.217Z,2.43
2019-05-14T20:48:08.900Z,2.33
2019-05-14T20:50:38.323Z,2.80
2019-05-14T20:53:05.582Z,2.90
2019-05-14T20:55:32.834Z,2.97
2019-05-14T20:58:00.167Z,3.40
2019-05-14T21:00:29.254Z,2.97
2019-05-14T21:02:59.245Z,2.57
2019-05-14T21:05:28.418Z,2.90
2019-05-14T21:07:55.614Z,2.67
2019-05-14T21:10:23.076Z,2.80
2019-05-14T21:12:50.583Z,2.67
2019-05-14T21:15:18.328Z,3.27
2019-05-14T21:17:45.725Z,2.53
2019-05-14T21:20:13.423Z,2.83
2019-05-14T21:22:40.805Z,2.70
2019-05-14T21:25:11.174Z,2.50
2019-05-14T21:27:44.909Z,2.87
2019-05-14T21:30:09.290Z,2.50
2019-05-14T21:32:42.040Z,2.30
2019-05-14T21:35:06.294Z,2.40
2019-05-14T21:37:33.705Z,2.70
2019-05-14T21:40:01.235Z,4.43
2019-05-14T21:42:28.695Z,4.63
2019-05-14T21:44:58.245Z,3.80
2019-05-14T21:47:28.503Z,3.53
2019-05-14T21:49:55.511Z,6.10
2019-05-14T21:54:06.031Z,4.90
2019-05-14T21:56:33.374Z,4.60
2019-05-14T21:59:01.417Z,4.53
2019-05-14T22:01:31.038Z,3.07
2019-05-14T22:03:59.286Z,2.97
2019-05-14T22:06:29.098Z,2.90
2019-05-14T22:08:58.958Z,3.33
2019-05-14T22:11:28.102Z,4.10
2019-05-14T22:13:55.083Z,4.10
2019-05-14T22:16:22.492Z,4.37
2019-05-14T22:18:49.771Z,4.73
2019-05-14T22:21:18.313Z,3.27
2019-05-14T22:23:48.025Z,3.63
2019-05-14T22:26:15.006Z,3.50
2019-05-14T22:28:42.288Z,3.70
2019-05-14T22:31:09.600Z,3.60
2019-05-14T22:33:38.261Z,3.37
2019-05-14T22:36:05.735Z,3.63
2019-05-14T22:38:33.043Z,3.30
2019-05-14T22:41:00.508Z,3.27
2019-05-14T22:43:28.820Z,2.97
2019-05-14T22:45:58.905Z,2.97
2019-05-14T22:48:25.648Z,3.17
2019-05-14T22:50:52.991Z,3.27
2019-05-14T22:53:20.298Z,3.70
2019-05-14T22:55:49.208Z,3.60
2019-05-14T22:58:25.311Z,3.23
2019-05-14T23:00:59.757Z,3.17
2019-05-14T23:03:18.353Z,3.10
2019-05-14T23:05:48.509Z,4.40
2019-05-14T23:08:18.469Z,3.77
2019-05-14T23:10:49.022Z,4.43
2019-05-14T23:13:18.609Z,7.87
2019-05-14T23:15:48.109Z,14.17
2019-05-14T23:18:18.128Z,10.40
2019-05-14T23:20:49.243Z,10.60
2019-05-14T23:23:18.511Z,10.07
2019-05-14T23:25:46.675Z,10.80
2019-05-14T23:28:15.363Z,8.77
2019-05-14T23:30:48.024Z,10.10
2019-05-14T23:33:18.900Z,12.67
2019-05-14T23:35:48.236Z,15.70
2019-05-14T23:38:18.953Z,12.47
2019-05-14T23:40:49.342Z,6.43
2019-05-14T23:43:18.664Z,5.27
2019-05-14T23:45:47.200Z,3.97
2019-05-14T23:48:15.421Z,5.00
2019-05-14T23:50:44.152Z,5.13
2019-05-14T23:53:12.815Z,4.30
2019-05-14T23:55:41.588Z,3.93
2019-05-14T23:58:10.751Z,3.10
